sensor_id;sensor_type;location;lat;lon;timestamp;P1;durP1;ratioP1;P2;durP2;ratioP2
20080;SDS011;10200;49.232;9.222;2023-06-14T00:01:18;5.00;;;3.67;;
20080;SDS011;10200;49.232;9.222;2023-06-14T00:03:45;5.73;;;3.17;;
20080;SDS011;10200;49.232;9.222;2023-06-14T00:06:12;3.30;;;3.00;;
20080;SDS011;10200;49.232;9.222;2023-06-14T00:08:38;3.93;;;3.13;;
20080;SDS011;10200;49.232;9.222;2023-06-14T00:11:04;3.40;;;2.87;;
20080;SDS011;10200;49.232;9.222;2023-06-14T00:13:30;6.03;;;3.57;;
20080;SDS011;10200;49.232;9.222;2023-06-14T00:15:56;4.23;;;3.23;;
20080;SDS011;10200;49.232;9.222;2023-06-14T00:18:22;6.43;;;2.90;;
20080;SDS011;10200;49.232;9.222;2023-06-14T00:20:49;3.37;;;3.07;;
20080;SDS011;10200;49.232;9.222;2023-06-14T00:23:16;5.13;;;3.03;;
20080;SDS011;10200;49.232;9.222;2023-06-14T00:25:41;5.07;;;3.40;;
20080;SDS011;10200;49.232;9.222;2023-06-14T00:28:07;4.87;;;3.20;;
20080;SDS011;10200;49.232;9.222;2023-06-14T00:30:32;4.90;;;3.03;;
20080;SDS011;10200;49.232;9.222;2023-06-14T00:32:58;4.73;;;3.20;;
20080;SDS011;10200;49.232;9.222;2023-06-14T00:35:24;6.33;;;3.67;;
20080;SDS011;10200;49.232;9.222;2023-06-14T00:37:50;5.67;;;3.10;;
20080;SDS011;10200;49.232;9.222;2023-06-14T00:40:16;4.43;;;3.43;;
20080;SDS011;10200;49.232;9.222;2023-06-14T00:42:42;3.57;;;3.17;;
20080;SDS011;10200;49.232;9.222;2023-06-14T00:45:07;5.93;;;3.43;;
20080;SDS011;10200;49.232;9.222;2023-06-14T00:47:34;4.60;;;3.10;;
20080;SDS011;10200;49.232;9.222;2023-06-14T00:50:02;3.77;;;3.23;;
20080;SDS011;10200;49.232;9.222;2023-06-14T00:52:31;5.00;;;3.60;;
20080;SDS011;10200;49.232;9.222;2023-06-14T00:54:57;5.47;;;3.63;;
20080;SDS011;10200;49.232;9.222;2023-06-14T00:57:23;5.73;;;3.37;;
20080;SDS011;10200;49.232;9.222;2023-06-14T00:59:50;4.73;;;3.17;;
20080;SDS011;10200;49.232;9.222;2023-06-14T01:02:16;5.53;;;3.57;;
20080;SDS011;10200;49.232;9.222;2023-06-14T01:04:43;4.27;;;3.00;;
20080;SDS011;10200;49.232;9.222;2023-06-14T01:07:30;5.03;;;3.17;;
20080;SDS011;10200;49.232;9.222;2023-06-14T01:12:58;4.77;;;3.40;;
20080;SDS011;10200;49.232;9.222;2023-06-14T01:15:34;6.57;;;3.30;;
20080;SDS011;10200;49.232;9.222;2023-06-14T01:18:01;4.27;;;3.40;;
20080;SDS011;10200;49.232;9.222;2023-06-14T01:20:31;4.07;;;3.30;;
20080;SDS011;10200;49.232;9.222;2023-06-14T01:22:58;4.17;;;3.10;;
20080;SDS011;10200;49.232;9.222;2023-06-14T01:25:24;3.47;;;3.00;;
20080;SDS011;10200;49.232;9.222;2023-06-14T01:28:01;8.53;;;3.63;;
20080;SDS011;10200;49.232;9.222;2023-06-14T01:30:35;5.67;;;3.37;;
20080;SDS011;10200;49.232;9.222;2023-06-14T01:33:02;5.63;;;3.60;;
20080;SDS011;10200;49.232;9.222;2023-06-14T01:35:30;4.87;;;3.83;;
20080;SDS011;10200;49.232;9.222;2023-06-14T01:37:56;4.13;;;3.33;;
20080;SDS011;10200;49.232;9.222;2023-06-14T01:40:23;5.50;;;3.20;;
20080;SDS011;10200;49.232;9.222;2023-06-14T01:42:50;6.10;;;3.50;;
20080;SDS011;10200;49.232;9.222;2023-06-14T01:45:16;3.33;;;3.03;;
20080;SDS011;10200;49.232;9.222;2023-06-14T01:47:44;4.67;;;3.87;;
20080;SDS011;10200;49.232;9.222;2023-06-14T01:50:10;5.27;;;3.37;;
20080;SDS011;10200;49.232;9.222;2023-06-14T01:52:37;7.63;;;3.47;;
20080;SDS011;10200;49.232;9.222;2023-06-14T01:55:04;4.30;;;3.67;;
20080;SDS011;10200;49.232;9.222;2023-06-14T01:57:31;4.83;;;3.57;;
20080;SDS011;10200;49.232;9.222;2023-06-14T01:59:57;4.30;;;3.87;;
20080;SDS011;10200;49.232;9.222;2023-06-14T02:02:22;4.97;;;3.87;;
20080;SDS011;10200;49.232;9.222;2023-06-14T02:04:48;5.07;;;3.60;;
20080;SDS011;10200;49.232;9.222;2023-06-14T02:07:13;8.07;;;3.17;;
20080;SDS011;10200;49.232;9.222;2023-06-14T02:09:42;4.57;;;3.57;;
20080;SDS011;10200;49.232;9.222;2023-06-14T02:12:08;5.67;;;3.33;;
20080;SDS011;10200;49.232;9.222;2023-06-14T02:14:34;6.50;;;3.93;;
20080;SDS011;10200;49.232;9.222;2023-06-14T02:16:59;5.43;;;3.40;;
20080;SDS011;10200;49.232;9.222;2023-06-14T02:19:26;4.57;;;3.53;;
20080;SDS011;10200;49.232;9.222;2023-06-14T02:21:51;4.87;;;4.00;;
20080;SDS011;10200;49.232;9.222;2023-06-14T02:24:17;4.83;;;3.67;;
20080;SDS011;10200;49.232;9.222;2023-06-14T02:26:43;3.90;;;3.50;;
20080;SDS011;10200;49.232;9.222;2023-06-14T02:29:09;4.73;;;3.57;;
20080;SDS011;10200;49.232;9.222;2023-06-14T02:31:37;4.77;;;3.80;;
20080;SDS011;10200;49.232;9.222;2023-06-14T02:34:03;4.43;;;3.57;;
20080;SDS011;10200;49.232;9.222;2023-06-14T02:36:28;3.93;;;3.40;;
20080;SDS011;10200;49.232;9.222;2023-06-14T02:38:57;5.43;;;3.07;;
20080;SDS011;10200;49.232;9.222;2023-06-14T02:41:23;4.70;;;3.60;;
20080;SDS011;10200;49.232;9.222;2023-06-14T02:43:51;9.73;;;3.43;;
20080;SDS011;10200;49.232;9.222;2023-06-14T02:46:18;4.60;;;3.63;;
20080;SDS011;10200;49.232;9.222;2023-06-14T02:48:44;5.87;;;4.17;;
20080;SDS011;10200;49.232;9.222;2023-06-14T02:51:10;4.10;;;3.70;;
20080;SDS011;10200;49.232;9.222;2023-06-14T02:53:38;4.67;;;3.90;;
20080;SDS011;10200;49.232;9.222;2023-06-14T02:56:05;5.43;;;4.07;;
20080;SDS011;10200;49.232;9.222;2023-06-14T02:58:31;3.63;;;3.33;;
20080;SDS011;10200;49.232;9.222;2023-06-14T03:00:58;4.83;;;3.70;;
20080;SDS011;10200;49.232;9.222;2023-06-14T03:03:27;4.80;;;3.47;;
20080;SDS011;10200;49.232;9.222;2023-06-14T03:05:53;5.47;;;3.97;;
20080;SDS011;10200;49.232;9.222;2023-06-14T03:08:19;3.30;;;3.00;;
20080;SDS011;10200;49.232;9.222;2023-06-14T03:10:45;6.53;;;4.47;;
20080;SDS011;10200;49.232;9.222;2023-06-14T03:13:15;6.93;;;4.50;;
20080;SDS011;10200;49.232;9.222;2023-06-14T03:15:41;4.67;;;3.40;;
20080;SDS011;10200;49.232;9.222;2023-06-14T03:18:09;5.43;;;3.90;;
20080;SDS011;10200;49.232;9.222;2023-06-14T03:20:37;6.30;;;3.30;;
20080;SDS011;10200;49.232;9.222;2023-06-14T03:23:03;7.73;;;4.00;;
20080;SDS011;10200;49.232;9.222;2023-06-14T03:25:29;4.70;;;4.20;;
20080;SDS011;10200;49.232;9.222;2023-06-14T03:27:55;4.43;;;3.90;;
20080;SDS011;10200;49.232;9.222;2023-06-14T03:30:21;5.07;;;4.23;;
20080;SDS011;10200;49.232;9.222;2023-06-14T03:32:47;6.97;;;4.23;;
20080;SDS011;10200;49.232;9.222;2023-06-14T03:35:12;6.20;;;4.03;;
20080;SDS011;10200;49.232;9.222;2023-06-14T03:37:45;4.33;;;3.93;;
20080;SDS011;10200;49.232;9.222;2023-06-14T03:40:12;5.10;;;4.10;;
20080;SDS011;10200;49.232;9.222;2023-06-14T03:42:39;7.27;;;3.87;;
20080;SDS011;10200;49.232;9.222;2023-06-14T03:45:05;5.33;;;4.33;;
20080;SDS011;10200;49.232;9.222;2023-06-14T03:47:32;8.40;;;4.17;;
20080;SDS011;10200;49.232;9.222;2023-06-14T03:49:58;7.60;;;3.90;;
20080;SDS011;10200;49.232;9.222;2023-06-14T03:52:23;5.20;;;3.80;;
20080;SDS011;10200;49.232;9.222;2023-06-14T03:54:49;4.93;;;3.90;;
20080;SDS011;10200;49.232;9.222;2023-06-14T03:57:16;8.07;;;4.40;;
20080;SDS011;10200;49.232;9.222;2023-06-14T03:59:42;7.07;;;3.80;;
20080;SDS011;10200;49.232;9.222;2023-06-14T04:02:08;5.53;;;4.00;;
20080;SDS011;10200;49.232;9.222;2023-06-14T04:04:35;6.03;;;3.90;;
20080;SDS011;10200;49.232;9.222;2023-06-14T04:07:01;4.87;;;3.93;;
20080;SDS011;10200;49.232;9.222;2023-06-14T04:09:29;4.30;;;3.73;;
20080;SDS011;10200;49.232;9.222;2023-06-14T04:11:55;5.37;;;4.20;;
20080;SDS011;10200;49.232;9.222;2023-06-14T04:14:21;5.40;;;3.53;;
20080;SDS011;10200;49.232;9.222;2023-06-14T04:16:47;8.13;;;4.43;;
20080;SDS011;10200;49.232;9.222;2023-06-14T04:19:14;4.20;;;3.80;;
20080;SDS011;10200;49.232;9.222;2023-06-14T04:21:41;5.20;;;3.57;;
20080;SDS011;10200;49.232;9.222;2023-06-14T04:24:07;5.53;;;4.33;;
20080;SDS011;10200;49.232;9.222;2023-06-14T04:26:38;5.93;;;3.50;;
20080;SDS011;10200;49.232;9.222;2023-06-14T04:29:04;4.67;;;3.23;;
20080;SDS011;10200;49.232;9.222;2023-06-14T04:31:31;6.07;;;4.10;;
20080;SDS011;10200;49.232;9.222;2023-06-14T04:33:58;5.37;;;4.10;;
20080;SDS011;10200;49.232;9.222;2023-06-14T04:36:24;5.97;;;3.87;;
20080;SDS011;10200;49.232;9.222;2023-06-14T04:38:52;6.60;;;3.80;;
20080;SDS011;10200;49.232;9.222;2023-06-14T04:41:20;5.23;;;3.57;;
20080;SDS011;10200;49.232;9.222;2023-06-14T04:43:47;7.23;;;4.10;;
20080;SDS011;10200;49.232;9.222;2023-06-14T04:46:14;6.93;;;4.03;;
20080;SDS011;10200;49.232;9.222;2023-06-14T04:48:42;4.20;;;3.80;;
20080;SDS011;10200;49.232;9.222;2023-06-14T04:51:08;5.53;;;3.60;;
20080;SDS011;10200;49.232;9.222;2023-06-14T04:53:34;3.83;;;3.30;;
20080;SDS011;10200;49.232;9.222;2023-06-14T04:56:00;5.87;;;3.73;;
20080;SDS011;10200;49.232;9.222;2023-06-14T04:58:26;4.07;;;3.63;;
20080;SDS011;10200;49.232;9.222;2023-06-14T05:00:53;5.60;;;3.90;;
20080;SDS011;10200;49.232;9.222;2023-06-14T05:03:21;5.73;;;4.57;;
20080;SDS011;10200;49.232;9.222;2023-06-14T05:05:47;5.30;;;3.90;;
20080;SDS011;10200;49.232;9.222;2023-06-14T05:08:13;7.65;;;3.90;;
20080;SDS011;10200;49.232;9.222;2023-06-14T05:10:39;6.93;;;3.92;;
20080;SDS011;10200;49.232;9.222;2023-06-14T05:13:04;3.90;;;3.50;;
20080;SDS011;10200;49.232;9.222;2023-06-14T05:15:30;4.00;;;3.60;;
20080;SDS011;10200;49.232;9.222;2023-06-14T05:17:56;4.73;;;3.90;;
20080;SDS011;10200;49.232;9.222;2023-06-14T05:20:22;4.43;;;3.80;;
20080;SDS011;10200;49.232;9.222;2023-06-14T05:22:49;5.40;;;3.83;;
20080;SDS011;10200;49.232;9.222;2023-06-14T05:25:17;6.73;;;3.93;;
20080;SDS011;10200;49.232;9.222;2023-06-14T05:27:43;5.07;;;4.20;;
20080;SDS011;10200;49.232;9.222;2023-06-14T05:30:09;7.70;;;4.03;;
20080;SDS011;10200;49.232;9.222;2023-06-14T05:32:35;4.93;;;3.80;;
20080;SDS011;10200;49.232;9.222;2023-06-14T05:35:01;3.90;;;3.40;;
20080;SDS011;10200;49.232;9.222;2023-06-14T05:37:27;5.72;;;3.90;;
20080;SDS011;10200;49.232;9.222;2023-06-14T05:39:52;8.75;;;4.05;;
20080;SDS011;10200;49.232;9.222;2023-06-14T05:42:18;7.22;;;4.13;;
20080;SDS011;10200;49.232;9.222;2023-06-14T05:44:43;3.38;;;3.08;;
20080;SDS011;10200;49.232;9.222;2023-06-14T05:47:09;4.22;;;3.65;;
20080;SDS011;10200;49.232;9.222;2023-06-14T05:49:34;5.20;;;4.00;;
20080;SDS011;10200;49.232;9.222;2023-06-14T05:52:00;3.92;;;3.63;;
20080;SDS011;10200;49.232;9.222;2023-06-14T05:54:26;4.97;;;3.40;;
20080;SDS011;10200;49.232;9.222;2023-06-14T05:56:51;7.03;;;3.75;;
20080;SDS011;10200;49.232;9.222;2023-06-14T05:59:17;3.55;;;3.22;;
20080;SDS011;10200;49.232;9.222;2023-06-14T06:01:42;6.30;;;3.50;;
20080;SDS011;10200;49.232;9.222;2023-06-14T06:04:08;6.50;;;3.38;;
20080;SDS011;10200;49.232;9.222;2023-06-14T06:06:34;5.60;;;3.60;;
20080;SDS011;10200;49.232;9.222;2023-06-14T06:09:00;4.95;;;3.45;;
20080;SDS011;10200;49.232;9.222;2023-06-14T06:11:27;6.10;;;3.63;;
20080;SDS011;10200;49.232;9.222;2023-06-14T06:13:52;5.38;;;3.17;;
20080;SDS011;10200;49.232;9.222;2023-06-14T06:16:18;4.50;;;3.88;;
20080;SDS011;10200;49.232;9.222;2023-06-14T06:18:44;7.22;;;3.70;;
20080;SDS011;10200;49.232;9.222;2023-06-14T06:21:09;7.72;;;4.05;;
20080;SDS011;10200;49.232;9.222;2023-06-14T06:23:35;4.65;;;3.40;;
20080;SDS011;10200;49.232;9.222;2023-06-14T06:26:01;6.97;;;3.65;;
20080;SDS011;10200;49.232;9.222;2023-06-14T06:28:27;6.97;;;3.28;;
20080;SDS011;10200;49.232;9.222;2023-06-14T06:30:54;6.18;;;3.47;;
20080;SDS011;10200;49.232;9.222;2023-06-14T06:33:20;3.53;;;3.22;;
20080;SDS011;10200;49.232;9.222;2023-06-14T06:35:46;5.50;;;3.33;;
20080;SDS011;10200;49.232;9.222;2023-06-14T06:38:13;4.55;;;3.10;;
20080;SDS011;10200;49.232;9.222;2023-06-14T06:40:38;6.20;;;3.05;;
20080;SDS011;10200;49.232;9.222;2023-06-14T06:43:04;4.78;;;3.35;;
20080;SDS011;10200;49.232;9.222;2023-06-14T06:45:30;3.70;;;3.40;;
20080;SDS011;10200;49.232;9.222;2023-06-14T06:47:55;7.68;;;3.08;;
20080;SDS011;10200;49.232;9.222;2023-06-14T06:50:22;4.93;;;3.20;;
20080;SDS011;10200;49.232;9.222;2023-06-14T06:52:48;4.68;;;3.42;;
20080;SDS011;10200;49.232;9.222;2023-06-14T06:55:14;7.00;;;3.25;;
20080;SDS011;10200;49.232;9.222;2023-06-14T06:57:39;5.88;;;3.28;;
20080;SDS011;10200;49.232;9.222;2023-06-14T07:00:06;3.63;;;3.10;;
20080;SDS011;10200;49.232;9.222;2023-06-14T07:02:35;5.72;;;3.05;;
20080;SDS011;10200;49.232;9.222;2023-06-14T07:05:02;6.07;;;3.47;;
20080;SDS011;10200;49.232;9.222;2023-06-14T07:07:27;3.45;;;3.13;;
20080;SDS011;10200;49.232;9.222;2023-06-14T07:09:53;7.05;;;3.70;;
20080;SDS011;10200;49.232;9.222;2023-06-14T07:12:19;3.63;;;3.05;;
20080;SDS011;10200;49.232;9.222;2023-06-14T07:14:44;4.90;;;3.47;;
20080;SDS011;10200;49.232;9.222;2023-06-14T07:17:10;5.03;;;3.45;;
20080;SDS011;10200;49.232;9.222;2023-06-14T07:19:36;3.97;;;3.22;;
20080;SDS011;10200;49.232;9.222;2023-06-14T07:22:02;4.47;;;3.72;;
20080;SDS011;10200;49.232;9.222;2023-06-14T07:24:28;3.38;;;3.00;;
20080;SDS011;10200;49.232;9.222;2023-06-14T07:26:53;4.13;;;3.33;;
20080;SDS011;10200;49.232;9.222;2023-06-14T07:29:20;5.05;;;3.33;;
20080;SDS011;10200;49.232;9.222;2023-06-14T07:31:46;6.43;;;3.00;;
20080;SDS011;10200;49.232;9.222;2023-06-14T07:34:12;7.30;;;3.85;;
20080;SDS011;10200;49.232;9.222;2023-06-14T07:36:37;8.65;;;3.20;;
20080;SDS011;10200;49.232;9.222;2023-06-14T07:39:03;3.67;;;3.22;;
20080;SDS011;10200;49.232;9.222;2023-06-14T07:41:31;4.07;;;3.30;;
20080;SDS011;10200;49.232;9.222;2023-06-14T07:43:57;6.50;;;2.88;;
20080;SDS011;10200;49.232;9.222;2023-06-14T07:46:26;5.68;;;3.20;;
20080;SDS011;10200;49.232;9.222;2023-06-14T07:48:51;3.63;;;3.10;;
20080;SDS011;10200;49.232;9.222;2023-06-14T07:51:17;4.75;;;3.25;;
20080;SDS011;10200;49.232;9.222;2023-06-14T07:53:43;4.10;;;3.03;;
20080;SDS011;10200;49.232;9.222;2023-06-14T07:56:08;5.00;;;3.13;;
20080;SDS011;10200;49.232;9.222;2023-06-14T07:58:34;6.82;;;3.88;;
20080;SDS011;10200;49.232;9.222;2023-06-14T08:01:00;10.30;;;3.40;;
20080;SDS011;10200;49.232;9.222;2023-06-14T08:03:28;3.95;;;3.28;;
20080;SDS011;10200;49.232;9.222;2023-06-14T08:05:55;6.18;;;3.72;;
20080;SDS011;10200;49.232;9.222;2023-06-14T08:08:20;3.05;;;2.72;;
20080;SDS011;10200;49.232;9.222;2023-06-14T08:10:46;3.67;;;2.90;;
20080;SDS011;10200;49.232;9.222;2023-06-14T08:13:11;3.60;;;2.95;;
20080;SDS011;10200;49.232;9.222;2023-06-14T08:15:38;9.02;;;3.60;;
20080;SDS011;10200;49.232;9.222;2023-06-14T08:18:03;3.25;;;2.80;;
20080;SDS011;10200;49.232;9.222;2023-06-14T08:20:29;3.70;;;2.83;;
20080;SDS011;10200;49.232;9.222;2023-06-14T08:22:56;3.78;;;3.35;;
20080;SDS011;10200;49.232;9.222;2023-06-14T08:25:23;6.03;;;3.00;;
20080;SDS011;10200;49.232;9.222;2023-06-14T08:27:49;3.47;;;3.08;;
20080;SDS011;10200;49.232;9.222;2023-06-14T08:30:15;5.55;;;3.60;;
20080;SDS011;10200;49.232;9.222;2023-06-14T08:32:42;6.47;;;3.30;;
20080;SDS011;10200;49.232;9.222;2023-06-14T08:35:08;3.88;;;3.20;;
20080;SDS011;10200;49.232;9.222;2023-06-14T08:37:37;4.88;;;3.10;;
20080;SDS011;10200;49.232;9.222;2023-06-14T08:40:07;3.25;;;2.95;;
20080;SDS011;10200;49.232;9.222;2023-06-14T08:42:50;6.32;;;2.95;;
20080;SDS011;10200;49.232;9.222;2023-06-14T08:45:18;4.55;;;3.42;;
20080;SDS011;10200;49.232;9.222;2023-06-14T08:47:45;3.47;;;3.15;;
20080;SDS011;10200;49.232;9.222;2023-06-14T08:50:16;8.18;;;3.55;;
20080;SDS011;10200;49.232;9.222;2023-06-14T08:52:45;3.15;;;2.72;;
20080;SDS011;10200;49.232;9.222;2023-06-14T08:55:14;5.15;;;3.03;;
20080;SDS011;10200;49.232;9.222;2023-06-14T08:57:42;5.57;;;3.20;;
20080;SDS011;10200;49.232;9.222;2023-06-14T09:00:30;4.90;;;3.08;;
20080;SDS011;10200;49.232;9.222;2023-06-14T09:02:55;5.20;;;2.92;;
20080;SDS011;10200;49.232;9.222;2023-06-14T09:05:24;4.93;;;2.40;;
20080;SDS011;10200;49.232;9.222;2023-06-14T09:07:51;4.25;;;2.95;;
20080;SDS011;10200;49.232;9.222;2023-06-14T09:10:17;3.25;;;2.78;;
20080;SDS011;10200;49.232;9.222;2023-06-14T09:12:43;3.80;;;3.40;;
20080;SDS011;10200;49.232;9.222;2023-06-14T09:15:29;3.55;;;3.22;;
20080;SDS011;10200;49.232;9.222;2023-06-14T09:17:56;3.42;;;2.90;;
20080;SDS011;10200;49.232;9.222;2023-06-14T09:20:23;7.95;;;2.67;;
20080;SDS011;10200;49.232;9.222;2023-06-14T09:22:49;4.80;;;2.63;;
20080;SDS011;10200;49.232;9.222;2023-06-14T09:25:15;3.05;;;2.70;;
20080;SDS011;10200;49.232;9.222;2023-06-14T09:27:41;14.27;;;2.95;;
20080;SDS011;10200;49.232;9.222;2023-06-14T09:30:10;3.13;;;2.90;;
20080;SDS011;10200;49.232;9.222;2023-06-14T09:32:37;4.53;;;3.20;;
20080;SDS011;10200;49.232;9.222;2023-06-14T09:35:05;4.60;;;3.00;;
20080;SDS011;10200;49.232;9.222;2023-06-14T09:37:32;4.28;;;3.00;;
20080;SDS011;10200;49.232;9.222;2023-06-14T09:39:58;3.72;;;3.08;;
20080;SDS011;10200;49.232;9.222;2023-06-14T09:42:24;7.32;;;3.33;;
20080;SDS011;10200;49.232;9.222;2023-06-14T09:44:54;4.13;;;2.95;;
20080;SDS011;10200;49.232;9.222;2023-06-14T09:47:21;4.20;;;2.80;;
20080;SDS011;10200;49.232;9.222;2023-06-14T09:49:47;4.78;;;2.95;;
20080;SDS011;10200;49.232;9.222;2023-06-14T09:52:14;3.08;;;2.67;;
20080;SDS011;10200;49.232;9.222;2023-06-14T09:54:42;4.40;;;3.28;;
20080;SDS011;10200;49.232;9.222;2023-06-14T09:57:11;6.32;;;3.20;;
20080;SDS011;10200;49.232;9.222;2023-06-14T09:59:39;3.85;;;2.88;;
20080;SDS011;10200;49.232;9.222;2023-06-14T10:02:07;3.22;;;2.78;;
20080;SDS011;10200;49.232;9.222;2023-06-14T10:05:05;6.22;;;3.05;;
20080;SDS011;10200;49.232;9.222;2023-06-14T10:07:36;5.55;;;2.88;;
20080;SDS011;10200;49.232;9.222;2023-06-14T10:10:05;3.58;;;2.70;;
20080;SDS011;10200;49.232;9.222;2023-06-14T10:12:32;2.78;;;2.38;;
20080;SDS011;10200;49.232;9.222;2023-06-14T10:14:58;3.75;;;2.90;;
20080;SDS011;10200;49.232;9.222;2023-06-14T10:19:54;2.92;;;2.55;;
20080;SDS011;10200;49.232;9.222;2023-06-14T10:25:35;10.90;;;2.95;;
20080;SDS011;10200;49.232;9.222;2023-06-14T10:33:31;3.30;;;2.30;;
20080;SDS011;10200;49.232;9.222;2023-06-14T10:36:08;6.00;;;2.30;;
20080;SDS011;10200;49.232;9.222;2023-06-14T10:38:36;4.13;;;2.40;;
20080;SDS011;10200;49.232;9.222;2023-06-14T10:41:03;3.47;;;2.17;;
20080;SDS011;10200;49.232;9.222;2023-06-14T10:43:30;2.40;;;2.20;;
20080;SDS011;10200;49.232;9.222;2023-06-14T10:46:15;2.83;;;2.47;;
20080;SDS011;10200;49.232;9.222;2023-06-14T10:48:45;3.83;;;3.05;;
20080;SDS011;10200;49.232;9.222;2023-06-14T10:51:20;4.30;;;2.58;;
20080;SDS011;10200;49.232;9.222;2023-06-14T10:53:50;4.20;;;2.85;;
20080;SDS011;10200;49.232;9.222;2023-06-14T10:56:32;8.85;;;2.60;;
20080;SDS011;10200;49.232;9.222;2023-06-14T10:58:58;4.22;;;2.75;;
20080;SDS011;10200;49.232;9.222;2023-06-14T11:01:36;2.75;;;2.55;;
20080;SDS011;10200;49.232;9.222;2023-06-14T11:04:10;4.70;;;2.65;;
20080;SDS011;10200;49.232;9.222;2023-06-14T11:06:44;4.55;;;2.55;;
20080;SDS011;10200;49.232;9.222;2023-06-14T11:09:28;3.05;;;2.35;;
20080;SDS011;10200;49.232;9.222;2023-06-14T11:12:22;4.47;;;2.38;;
20080;SDS011;10200;49.232;9.222;2023-06-14T11:14:51;3.80;;;2.60;;
20080;SDS011;10200;49.232;9.222;2023-06-14T11:17:17;3.13;;;2.67;;
20080;SDS011;10200;49.232;9.222;2023-06-14T11:19:43;2.85;;;2.33;;
20080;SDS011;10200;49.232;9.222;2023-06-14T11:22:09;2.92;;;2.72;;
20080;SDS011;10200;49.232;9.222;2023-06-14T11:24:35;4.38;;;2.55;;
20080;SDS011;10200;49.232;9.222;2023-06-14T11:27:04;12.18;;;3.15;;
20080;SDS011;10200;49.232;9.222;2023-06-14T11:29:31;4.07;;;2.60;;
20080;SDS011;10200;49.232;9.222;2023-06-14T11:31:56;3.05;;;2.63;;
20080;SDS011;10200;49.232;9.222;2023-06-14T11:34:24;3.80;;;2.60;;
20080;SDS011;10200;49.232;9.222;2023-06-14T11:36:50;5.75;;;3.00;;
20080;SDS011;10200;49.232;9.222;2023-06-14T11:39:15;3.55;;;2.75;;
20080;SDS011;10200;49.232;9.222;2023-06-14T11:41:44;3.60;;;2.50;;
20080;SDS011;10200;49.232;9.222;2023-06-14T11:44:10;3.42;;;2.53;;
20080;SDS011;10200;49.232;9.222;2023-06-14T11:46:37;3.25;;;2.72;;
20080;SDS011;10200;49.232;9.222;2023-06-14T11:49:03;2.92;;;2.72;;
20080;SDS011;10200;49.232;9.222;2023-06-14T11:51:30;3.75;;;2.90;;
20080;SDS011;10200;49.232;9.222;2023-06-14T11:53:57;5.40;;;2.75;;
20080;SDS011;10200;49.232;9.222;2023-06-14T11:56:23;4.13;;;2.22;;
20080;SDS011;10200;49.232;9.222;2023-06-14T11:58:50;2.30;;;2.10;;
20080;SDS011;10200;49.232;9.222;2023-06-14T12:01:18;3.60;;;2.30;;
20080;SDS011;10200;49.232;9.222;2023-06-14T12:03:50;4.35;;;2.30;;
20080;SDS011;10200;49.232;9.222;2023-06-14T12:06:25;2.53;;;2.33;;
20080;SDS011;10200;49.232;9.222;2023-06-14T12:09:12;3.90;;;2.78;;
20080;SDS011;10200;49.232;9.222;2023-06-14T12:11:43;3.03;;;2.75;;
20080;SDS011;10200;49.232;9.222;2023-06-14T12:14:09;3.00;;;2.40;;
20080;SDS011;10200;49.232;9.222;2023-06-14T12:16:36;2.92;;;2.63;;
20080;SDS011;10200;49.232;9.222;2023-06-14T12:19:13;6.03;;;2.78;;
20080;SDS011;10200;49.232;9.222;2023-06-14T12:21:41;5.70;;;2.90;;
20080;SDS011;10200;49.232;9.222;2023-06-14T12:24:07;4.35;;;2.95;;
20080;SDS011;10200;49.232;9.222;2023-06-14T12:26:40;3.13;;;2.30;;
20080;SDS011;10200;49.232;9.222;2023-06-14T12:29:06;3.80;;;3.13;;
20080;SDS011;10200;49.232;9.222;2023-06-14T12:31:32;3.38;;;3.05;;
20080;SDS011;10200;49.232;9.222;2023-06-14T12:33:58;7.18;;;2.55;;
20080;SDS011;10200;49.232;9.222;2023-06-14T12:36:24;5.13;;;3.25;;
20080;SDS011;10200;49.232;9.222;2023-06-14T12:38:51;4.93;;;3.10;;
20080;SDS011;10200;49.232;9.222;2023-06-14T12:41:20;3.88;;;2.80;;
20080;SDS011;10200;49.232;9.222;2023-06-14T12:43:47;2.97;;;2.50;;
20080;SDS011;10200;49.232;9.222;2023-06-14T12:46:13;3.05;;;2.75;;
20080;SDS011;10200;49.232;9.222;2023-06-14T12:48:38;3.67;;;2.45;;
20080;SDS011;10200;49.232;9.222;2023-06-14T12:51:04;3.08;;;2.35;;
20080;SDS011;10200;49.232;9.222;2023-06-14T12:53:30;5.72;;;2.92;;
20080;SDS011;10200;49.232;9.222;2023-06-14T12:55:55;5.30;;;2.90;;
20080;SDS011;10200;49.232;9.222;2023-06-14T12:58:21;3.00;;;2.50;;
20080;SDS011;10200;49.232;9.222;2023-06-14T13:00:49;5.90;;;2.80;;
20080;SDS011;10200;49.232;9.222;2023-06-14T13:03:14;4.47;;;2.20;;
20080;SDS011;10200;49.232;9.222;2023-06-14T13:05:40;4.50;;;2.75;;
20080;SDS011;10200;49.232;9.222;2023-06-14T13:08:07;3.25;;;2.55;;
20080;SDS011;10200;49.232;9.222;2023-06-14T13:10:36;3.70;;;2.60;;
20080;SDS011;10200;49.232;9.222;2023-06-14T13:13:02;3.20;;;2.72;;
20080;SDS011;10200;49.232;9.222;2023-06-14T13:15:27;4.93;;;2.83;;
20080;SDS011;10200;49.232;9.222;2023-06-14T13:17:56;4.43;;;3.05;;
20080;SDS011;10200;49.232;9.222;2023-06-14T13:20:22;4.50;;;2.55;;
20080;SDS011;10200;49.232;9.222;2023-06-14T13:22:48;3.30;;;2.78;;
20080;SDS011;10200;49.232;9.222;2023-06-14T13:25:14;3.22;;;2.20;;
20080;SDS011;10200;49.232;9.222;2023-06-14T13:27:40;3.95;;;2.60;;
20080;SDS011;10200;49.232;9.222;2023-06-14T13:30:06;4.38;;;2.42;;
20080;SDS011;10200;49.232;9.222;2023-06-14T13:32:32;4.03;;;2.50;;
20080;SDS011;10200;49.232;9.222;2023-06-14T13:34:59;6.57;;;2.80;;
20080;SDS011;10200;49.232;9.222;2023-06-14T13:37:24;3.90;;;2.58;;
20080;SDS011;10200;49.232;9.222;2023-06-14T13:39:50;6.35;;;2.95;;
20080;SDS011;10200;49.232;9.222;2023-06-14T13:42:16;5.68;;;2.47;;
20080;SDS011;10200;49.232;9.222;2023-06-14T13:44:41;6.20;;;3.20;;
20080;SDS011;10200;49.232;9.222;2023-06-14T13:47:07;3.63;;;2.80;;
20080;SDS011;10200;49.232;9.222;2023-06-14T13:49:33;3.35;;;2.50;;
20080;SDS011;10200;49.232;9.222;2023-06-14T13:52:00;5.20;;;2.65;;
20080;SDS011;10200;49.232;9.222;2023-06-14T13:54:26;5.80;;;2.95;;
20080;SDS011;10200;49.232;9.222;2023-06-14T13:56:52;4.10;;;2.75;;
20080;SDS011;10200;49.232;9.222;2023-06-14T13:59:18;4.63;;;2.38;;
20080;SDS011;10200;49.232;9.222;2023-06-14T14:01:43;3.53;;;2.58;;
20080;SDS011;10200;49.232;9.222;2023-06-14T14:04:09;3.42;;;2.60;;
20080;SDS011;10200;49.232;9.222;2023-06-14T14:06:35;3.65;;;3.03;;
20080;SDS011;10200;49.232;9.222;2023-06-14T14:09:00;3.53;;;2.45;;
20080;SDS011;10200;49.232;9.222;2023-06-14T14:11:27;2.60;;;2.40;;
20080;SDS011;10200;49.232;9.222;2023-06-14T14:13:53;2.90;;;2.63;;
20080;SDS011;10200;49.232;9.222;2023-06-14T14:16:19;2.97;;;2.42;;
20080;SDS011;10200;49.232;9.222;2023-06-14T14:18:45;2.67;;;2.38;;
20080;SDS011;10200;49.232;9.222;2023-06-14T14:21:11;3.80;;;2.85;;
20080;SDS011;10200;49.232;9.222;2023-06-14T14:23:37;4.40;;;2.40;;
20080;SDS011;10200;49.232;9.222;2023-06-14T14:26:02;3.72;;;2.83;;
20080;SDS011;10200;49.232;9.222;2023-06-14T14:28:29;3.15;;;2.88;;
20080;SDS011;10200;49.232;9.222;2023-06-14T14:30:56;3.63;;;2.40;;
20080;SDS011;10200;49.232;9.222;2023-06-14T14:33:21;5.65;;;2.95;;
20080;SDS011;10200;49.232;9.222;2023-06-14T14:35:47;2.95;;;2.65;;
20080;SDS011;10200;49.232;9.222;2023-06-14T14:38:14;2.60;;;2.20;;
20080;SDS011;10200;49.232;9.222;2023-06-14T14:40:43;2.83;;;2.25;;
20080;SDS011;10200;49.232;9.222;2023-06-14T14:43:10;6.22;;;2.92;;
20080;SDS011;10200;49.232;9.222;2023-06-14T14:45:36;3.58;;;2.60;;
20080;SDS011;10200;49.232;9.222;2023-06-14T14:48:02;3.63;;;2.55;;
20080;SDS011;10200;49.232;9.222;2023-06-14T14:50:28;4.20;;;2.75;;
20080;SDS011;10200;49.232;9.222;2023-06-14T14:52:55;7.07;;;2.75;;
20080;SDS011;10200;49.232;9.222;2023-06-14T14:55:21;5.15;;;2.63;;
20080;SDS011;10200;49.232;9.222;2023-06-14T14:57:47;6.00;;;2.90;;
20080;SDS011;10200;49.232;9.222;2023-06-14T15:00:13;3.05;;;2.60;;
20080;SDS011;10200;49.232;9.222;2023-06-14T15:02:39;2.72;;;2.53;;